sensor_id;sensor_type;location;lat;lon;timestamp;pressure;altitude;pressure_sealevel;temperature;humidity
498;BME280;39559;48.630;9.162;2023-03-26T00:02:04;97017.81;;;5.64;100.00
498;BME280;39559;48.630;9.162;2023-03-26T00:04:29;97017.94;;;5.88;100.00
498;BME280;39559;48.630;9.162;2023-03-26T00:06:57;97008.44;;;5.33;100.00
498;BME280;39559;48.630;9.162;2023-03-26T00:11:19;97009.47;;;4.96;100.00
498;BME280;39559;48.630;9.162;2023-03-26T00:13:47;97011.00;;;4.72;100.00
498;BME280;39559;48.630;9.162;2023-03-26T00:16:16;97015.22;;;4.75;100.00
498;BME280;39559;48.630;9.162;2023-03-26T00:18:43;97023.13;;;4.67;100.00
498;BME280;39559;48.630;9.162;2023-03-26T00:21:12;97017.72;;;4.76;100.00
498;BME280;39559;48.630;9.162;2023-03-26T00:23:38;97022.97;;;4.73;100.00
498;BME280;39559;48.630;9.162;2023-03-26T00:26:04;97022.63;;;4.86;100.00
498;BME280;39559;48.630;9.162;2023-03-26T00:28:38;97028.66;;;4.85;100.00
498;BME280;39559;48.630;9.162;2023-03-26T00:31:06;97022.22;;;5.01;100.00
498;BME280;39559;48.630;9.162;2023-03-26T00:35:17;97014.53;;;5.29;100.00
498;BME280;39559;48.630;9.162;2023-03-26T00:37:42;97017.78;;;5.36;100.00
498;BME280;39559;48.630;9.162;2023-03-26T00:40:20;97014.97;;;5.44;100.00
498;BME280;39559;48.630;9.162;2023-03-26T00:42:47;97014.88;;;5.47;100.00
498;BME280;39559;48.630;9.162;2023-03-26T00:45:13;97012.81;;;5.58;100.00
498;BME280;39559;48.630;9.162;2023-03-26T00:47:38;97011.03;;;5.60;100.00
498;BME280;39559;48.630;9.162;2023-03-26T00:50:06;97002.63;;;5.55;100.00
498;BME280;39559;48.630;9.162;2023-03-26T00:52:32;97000.81;;;5.58;100.00
498;BME280;39559;48.630;9.162;2023-03-26T00:55:00;97003.16;;;5.66;100.00
498;BME280;39559;48.630;9.162;2023-03-26T00:59:15;96997.25;;;5.63;100.00
498;BME280;39559;48.630;9.162;2023-03-26T01:01:41;96993.94;;;5.59;100.00
498;BME280;39559;48.630;9.162;2023-03-26T01:04:25;96987.69;;;5.66;100.00
498;BME280;39559;48.630;9.162;2023-03-26T01:06:53;96984.91;;;5.72;100.00
498;BME280;39559;48.630;9.162;2023-03-26T01:09:21;96987.44;;;5.74;100.00
498;BME280;39559;48.630;9.162;2023-03-26T01:11:49;96979.94;;;5.68;100.00
498;BME280;39559;48.630;9.162;2023-03-26T01:14:18;96967.72;;;5.73;100.00
498;BME280;39559;48.630;9.162;2023-03-26T01:16:52;96968.28;;;5.83;100.00
498;BME280;39559;48.630;9.162;2023-03-26T01:23:21;96946.59;;;5.90;100.00
498;BME280;39559;48.630;9.162;2023-03-26T01:26:06;96942.69;;;5.76;100.00
498;BME280;39559;48.630;9.162;2023-03-26T01:28:37;96942.22;;;5.65;100.00
498;BME280;39559;48.630;9.162;2023-03-26T01:31:15;96946.19;;;5.47;100.00
498;BME280;39559;48.630;9.162;2023-03-26T01:36:52;96933.34;;;5.74;100.00
498;BME280;39559;48.630;9.162;2023-03-26T01:39:28;96925.66;;;5.72;100.00
498;BME280;39559;48.630;9.162;2023-03-26T01:42:02;96929.38;;;5.64;100.00
498;BME280;39559;48.630;9.162;2023-03-26T01:47:14;96922.94;;;5.77;100.00
498;BME280;39559;48.630;9.162;2023-03-26T01:49:41;96911.16;;;5.70;100.00
498;BME280;39559;48.630;9.162;2023-03-26T01:52:15;96913.56;;;5.74;100.00
498;BME280;39559;48.630;9.162;2023-03-26T01:54:42;96905.25;;;5.66;100.00
498;BME280;39559;48.630;9.162;2023-03-26T01:57:44;96888.97;;;5.66;100.00
498;BME280;39559;48.630;9.162;2023-03-26T02:03:03;96888.84;;;5.15;100.00
498;BME280;39559;48.630;9.162;2023-03-26T02:05:51;96893.41;;;5.06;100.00
498;BME280;39559;48.630;9.162;2023-03-26T02:08:29;96877.16;;;5.32;100.00
498;BME280;39559;48.630;9.162;2023-03-26T02:14:21;96869.97;;;5.42;100.00
498;BME280;39559;48.630;9.162;2023-03-26T02:17:00;96861.50;;;5.38;100.00
498;BME280;39559;48.630;9.162;2023-03-26T02:19:26;96845.53;;;5.28;100.00
498;BME280;39559;48.630;9.162;2023-03-26T02:21:51;96849.31;;;5.16;100.00
498;BME280;39559;48.630;9.162;2023-03-26T02:24:18;96846.69;;;5.18;100.00
498;BME280;39559;48.630;9.162;2023-03-26T02:26:59;96851.13;;;4.86;100.00
498;BME280;39559;48.630;9.162;2023-03-26T02:29:26;96848.06;;;5.02;100.00
498;BME280;39559;48.630;9.162;2023-03-26T02:31:52;96846.00;;;5.13;100.00
498;BME280;39559;48.630;9.162;2023-03-26T02:35:10;96843.66;;;5.33;100.00
498;BME280;39559;48.630;9.162;2023-03-26T02:37:36;96835.97;;;5.32;100.00
498;BME280;39559;48.630;9.162;2023-03-26T02:40:03;96835.69;;;5.41;100.00
498;BME280;39559;48.630;9.162;2023-03-26T02:42:30;96829.72;;;5.12;100.00
498;BME280;39559;48.630;9.162;2023-03-26T02:44:55;96834.59;;;4.93;100.00
498;BME280;39559;48.630;9.162;2023-03-26T02:47:21;96828.41;;;4.71;100.00
498;BME280;39559;48.630;9.162;2023-03-26T02:49:47;96827.44;;;4.75;100.00
498;BME280;39559;48.630;9.162;2023-03-26T02:52:12;96820.41;;;4.80;100.00
498;BME280;39559;48.630;9.162;2023-03-26T02:54:41;96814.78;;;4.97;100.00
498;BME280;39559;48.630;9.162;2023-03-26T02:59:10;96803.09;;;4.58;100.00
498;BME280;39559;48.630;9.162;2023-03-26T03:01:36;96802.28;;;4.27;100.00
498;BME280;39559;48.630;9.162;2023-03-26T03:04:11;96784.81;;;4.38;100.00
498;BME280;39559;48.630;9.162;2023-03-26T03:06:37;96782.81;;;4.18;100.00
498;BME280;39559;48.630;9.162;2023-03-26T03:09:09;96778.09;;;4.04;100.00
498;BME280;39559;48.630;9.162;2023-03-26T03:11:35;96770.31;;;4.06;100.00
498;BME280;39559;48.630;9.162;2023-03-26T03:14:01;96766.16;;;4.01;100.00
498;BME280;39559;48.630;9.162;2023-03-26T03:16:27;96756.81;;;3.99;100.00
498;BME280;39559;48.630;9.162;2023-03-26T03:18:53;96752.94;;;4.15;100.00
498;BME280;39559;48.630;9.162;2023-03-26T03:23:10;96748.97;;;4.03;100.00
498;BME280;39559;48.630;9.162;2023-03-26T03:25:35;96750.34;;;4.15;100.00
498;BME280;39559;48.630;9.162;2023-03-26T03:28:03;96743.13;;;4.28;100.00
498;BME280;39559;48.630;9.162;2023-03-26T03:30:29;96732.59;;;4.36;100.00
498;BME280;39559;48.630;9.162;2023-03-26T03:32:54;96742.81;;;4.39;100.00
498;BME280;39559;48.630;9.162;2023-03-26T03:35:23;96744.78;;;4.29;100.00
498;BME280;39559;48.630;9.162;2023-03-26T03:37:49;96748.06;;;4.34;100.00
498;BME280;39559;48.630;9.162;2023-03-26T03:40:15;96734.72;;;4.51;100.00
498;BME280;39559;48.630;9.162;2023-03-26T03:42:41;96740.88;;;4.46;100.00
498;BME280;39559;48.630;9.162;2023-03-26T03:47:09;96728.72;;;4.22;100.00
498;BME280;39559;48.630;9.162;2023-03-26T03:49:38;96720.66;;;4.35;100.00
498;BME280;39559;48.630;9.162;2023-03-26T03:52:04;96723.81;;;4.43;100.00
498;BME280;39559;48.630;9.162;2023-03-26T03:54:30;96712.75;;;4.41;100.00
498;BME280;39559;48.630;9.162;2023-03-26T03:56:55;96714.09;;;4.25;100.00
498;BME280;39559;48.630;9.162;2023-03-26T03:59:21;96709.00;;;4.23;100.00
498;BME280;39559;48.630;9.162;2023-03-26T04:01:46;96718.94;;;4.35;100.00
498;BME280;39559;48.630;9.162;2023-03-26T04:04:12;96706.19;;;4.31;100.00
498;BME280;39559;48.630;9.162;2023-03-26T04:06:38;96706.78;;;4.40;100.00
498;BME280;39559;48.630;9.162;2023-03-26T04:11:07;96696.66;;;4.06;100.00
498;BME280;39559;48.630;9.162;2023-03-26T04:13:34;96693.34;;;4.31;100.00
498;BME280;39559;48.630;9.162;2023-03-26T04:15:59;96676.88;;;4.36;100.00
498;BME280;39559;48.630;9.162;2023-03-26T04:18:25;96675.06;;;4.40;100.00
498;BME280;39559;48.630;9.162;2023-03-26T04:20:52;96669.19;;;4.36;100.00
498;BME280;39559;48.630;9.162;2023-03-26T04:23:20;96676.34;;;4.27;100.00
498;BME280;39559;48.630;9.162;2023-03-26T04:25:51;96676.47;;;4.22;100.00
498;BME280;39559;48.630;9.162;2023-03-26T04:28:27;96662.34;;;4.37;100.00
498;BME280;39559;48.630;9.162;2023-03-26T04:31:13;96649.66;;;4.31;100.00
498;BME280;39559;48.630;9.162;2023-03-26T04:35:11;96649.81;;;4.26;100.00
498;BME280;39559;48.630;9.162;2023-03-26T04:37:39;96646.94;;;4.07;100.00
498;BME280;39559;48.630;9.162;2023-03-26T04:40:08;96649.19;;;4.18;100.00
498;BME280;39559;48.630;9.162;2023-03-26T04:42:36;96636.00;;;4.29;100.00
498;BME280;39559;48.630;9.162;2023-03-26T04:45:06;96623.50;;;4.18;100.00
498;BME280;39559;48.630;9.162;2023-03-26T04:47:33;96628.59;;;4.19;100.00
498;BME280;39559;48.630;9.162;2023-03-26T04:50:35;96629.00;;;4.06;100.00
498;BME280;39559;48.630;9.162;2023-03-26T04:53:01;96620.66;;;3.99;100.00
498;BME280;39559;48.630;9.162;2023-03-26T04:55:35;96618.19;;;3.96;100.00
498;BME280;39559;48.630;9.162;2023-03-26T04:59:10;96616.44;;;4.25;100.00
498;BME280;39559;48.630;9.162;2023-03-26T05:01:38;96625.03;;;4.23;100.00
498;BME280;39559;48.630;9.162;2023-03-26T05:04:04;96611.06;;;4.32;100.00
498;BME280;39559;48.630;9.162;2023-03-26T05:06:30;96616.94;;;4.36;100.00
498;BME280;39559;48.630;9.162;2023-03-26T05:09:01;96613.66;;;4.31;100.00
498;BME280;39559;48.630;9.162;2023-03-26T05:11:27;96604.88;;;4.38;100.00
498;BME280;39559;48.630;9.162;2023-03-26T05:13:52;96594.00;;;4.56;100.00
498;BME280;39559;48.630;9.162;2023-03-26T05:16:18;96600.03;;;4.55;100.00
498;BME280;39559;48.630;9.162;2023-03-26T05:18:44;96597.25;;;4.08;100.00
498;BME280;39559;48.630;9.162;2023-03-26T05:23:06;96595.84;;;3.98;100.00
498;BME280;39559;48.630;9.162;2023-03-26T05:25:32;96584.41;;;4.08;100.00
498;BME280;39559;48.630;9.162;2023-03-26T05:27:59;96579.78;;;4.19;100.00
498;BME280;39559;48.630;9.162;2023-03-26T05:30:25;96582.09;;;4.27;100.00
498;BME280;39559;48.630;9.162;2023-03-26T05:32:51;96573.41;;;4.31;100.00
498;BME280;39559;48.630;9.162;2023-03-26T05:35:18;96560.78;;;4.50;100.00
498;BME280;39559;48.630;9.162;2023-03-26T05:37:44;96559.03;;;4.51;100.00
498;BME280;39559;48.630;9.162;2023-03-26T05:40:11;96561.97;;;4.40;100.00
498;BME280;39559;48.630;9.162;2023-03-26T05:42:39;96555.31;;;4.34;100.00
498;BME280;39559;48.630;9.162;2023-03-26T05:47:03;96528.50;;;4.41;100.00
498;BME280;39559;48.630;9.162;2023-03-26T05:49:29;96518.63;;;4.29;100.00
498;BME280;39559;48.630;9.162;2023-03-26T05:51:55;96519.63;;;4.25;100.00
498;BME280;39559;48.630;9.162;2023-03-26T05:54:20;96513.78;;;4.20;100.00
498;BME280;39559;48.630;9.162;2023-03-26T05:56:49;96518.34;;;4.12;100.00
498;BME280;39559;48.630;9.162;2023-03-26T05:59:18;96514.19;;;3.81;100.00
498;BME280;39559;48.630;9.162;2023-03-26T06:01:43;96507.91;;;4.16;100.00
498;BME280;39559;48.630;9.162;2023-03-26T06:04:12;96510.00;;;4.32;100.00
498;BME280;39559;48.630;9.162;2023-03-26T06:06:40;96505.66;;;4.59;100.00
498;BME280;39559;48.630;9.162;2023-03-26T06:11:05;96491.38;;;4.50;100.00
498;BME280;39559;48.630;9.162;2023-03-26T06:13:34;96492.94;;;4.54;100.00
498;BME280;39559;48.630;9.162;2023-03-26T06:16:00;96498.84;;;4.56;100.00
498;BME280;39559;48.630;9.162;2023-03-26T06:18:25;96493.78;;;4.55;100.00
498;BME280;39559;48.630;9.162;2023-03-26T06:20:51;96481.19;;;4.47;100.00
498;BME280;39559;48.630;9.162;2023-03-26T06:23:17;96478.97;;;4.36;100.00
498;BME280;39559;48.630;9.162;2023-03-26T06:25:44;96475.22;;;4.47;100.00
498;BME280;39559;48.630;9.162;2023-03-26T06:28:13;96467.91;;;4.59;100.00
498;BME280;39559;48.630;9.162;2023-03-26T06:30:39;96470.06;;;4.72;100.00
498;BME280;39559;48.630;9.162;2023-03-26T06:35:05;96469.38;;;4.90;100.00
498;BME280;39559;48.630;9.162;2023-03-26T06:37:30;96464.53;;;5.28;100.00
498;BME280;39559;48.630;9.162;2023-03-26T06:39:56;96451.47;;;5.11;100.00
498;BME280;39559;48.630;9.162;2023-03-26T06:42:22;96457.97;;;5.21;100.00
498;BME280;39559;48.630;9.162;2023-03-26T06:44:47;96440.19;;;5.37;100.00
498;BME280;39559;48.630;9.162;2023-03-26T06:47:13;96443.13;;;5.50;100.00
498;BME280;39559;48.630;9.162;2023-03-26T06:49:38;96431.19;;;5.69;100.00
498;BME280;39559;48.630;9.162;2023-03-26T06:52:06;96429.75;;;5.40;100.00
498;BME280;39559;48.630;9.162;2023-03-26T06:54:31;96427.72;;;5.48;100.00
498;BME280;39559;48.630;9.162;2023-03-26T06:59:04;96422.50;;;5.72;100.00
498;BME280;39559;48.630;9.162;2023-03-26T07:01:30;96418.34;;;5.90;100.00
498;BME280;39559;48.630;9.162;2023-03-26T07:03:55;96411.72;;;5.84;100.00
498;BME280;39559;48.630;9.162;2023-03-26T07:06:21;96405.41;;;5.91;100.00
498;BME280;39559;48.630;9.162;2023-03-26T07:08:46;96392.00;;;6.04;100.00
498;BME280;39559;48.630;9.162;2023-03-26T07:11:12;96397.69;;;5.91;100.00
498;BME280;39559;48.630;9.162;2023-03-26T07:13:38;96387.38;;;5.91;100.00
498;BME280;39559;48.630;9.162;2023-03-26T07:16:05;96389.78;;;5.96;100.00
498;BME280;39559;48.630;9.162;2023-03-26T07:18:31;96384.09;;;5.88;100.00
498;BME280;39559;48.630;9.162;2023-03-26T07:23:05;96374.19;;;5.99;100.00
498;BME280;39559;48.630;9.162;2023-03-26T07:25:31;96374.78;;;5.84;100.00
498;BME280;39559;48.630;9.162;2023-03-26T07:34:02;96343.31;;;5.77;100.00
498;BME280;39559;48.630;9.162;2023-03-26T07:36:35;96363.44;;;5.67;100.00
498;BME280;39559;48.630;9.162;2023-03-26T07:42:29;96339.63;;;5.62;100.00
498;BME280;39559;48.630;9.162;2023-03-26T07:47:15;96322.94;;;5.71;100.00
498;BME280;39559;48.630;9.162;2023-03-26T07:49:44;96335.69;;;5.74;100.00
498;BME280;39559;48.630;9.162;2023-03-26T07:52:10;96318.75;;;5.68;100.00
498;BME280;39559;48.630;9.162;2023-03-26T07:54:36;96321.84;;;5.56;100.00
498;BME280;39559;48.630;9.162;2023-03-26T07:57:13;96320.69;;;5.63;100.00
498;BME280;39559;48.630;9.162;2023-03-26T07:59:58;96328.63;;;5.58;100.00
498;BME280;39559;48.630;9.162;2023-03-26T08:05:26;96325.56;;;5.69;100.00
498;BME280;39559;48.630;9.162;2023-03-26T08:08:11;96326.28;;;5.73;100.00
498;BME280;39559;48.630;9.162;2023-03-26T08:11:21;96317.59;;;5.75;100.00
498;BME280;39559;48.630;9.162;2023-03-26T08:14:12;96303.25;;;5.70;100.00
498;BME280;39559;48.630;9.162;2023-03-26T08:17:07;96299.13;;;5.86;100.00
498;BME280;39559;48.630;9.162;2023-03-26T08:19:47;96296.19;;;5.95;100.00
498;BME280;39559;48.630;9.162;2023-03-26T08:22:26;96305.88;;;5.89;100.00
498;BME280;39559;48.630;9.162;2023-03-26T08:27:37;96296.38;;;5.89;100.00
498;BME280;39559;48.630;9.162;2023-03-26T08:30:13;96287.78;;;5.90;100.00
498;BME280;39559;48.630;9.162;2023-03-26T08:35:02;96283.72;;;5.85;100.00
498;BME280;39559;48.630;9.162;2023-03-26T08:37:28;96279.09;;;5.72;100.00
498;BME280;39559;48.630;9.162;2023-03-26T08:39:54;96278.69;;;5.82;100.00
498;BME280;39559;48.630;9.162;2023-03-26T08:56:22;96281.63;;;5.93;100.00
498;BME280;39559;48.630;9.162;2023-03-26T09:07:40;96271.56;;;6.47;100.00
498;BME280;39559;48.630;9.162;2023-03-26T09:13:07;96273.28;;;6.84;100.00
498;BME280;39559;48.630;9.162;2023-03-26T09:16:43;96296.19;;;6.90;100.00
498;BME280;39559;48.630;9.162;2023-03-26T09:23:11;96275.69;;;6.87;100.00
498;BME280;39559;48.630;9.162;2023-03-26T09:26:05;96280.00;;;6.87;100.00
498;BME280;39559;48.630;9.162;2023-03-26T09:34:37;96274.97;;;7.03;100.00
498;BME280;39559;48.630;9.162;2023-03-26T09:42:58;96253.47;;;8.71;100.00
498;BME280;39559;48.630;9.162;2023-03-26T09:47:22;96254.66;;;9.11;100.00
498;BME280;39559;48.630;9.162;2023-03-26T09:56:07;96254.28;;;8.87;100.00
498;BME280;39559;48.630;9.162;2023-03-26T09:59:43;96274.13;;;9.18;100.00
498;BME280;39559;48.630;9.162;2023-03-26T10:11:25;96254.91;;;9.22;100.00
498;BME280;39559;48.630;9.162;2023-03-26T10:40:57;96228.47;;;11.56;99.85
498;BME280;39559;48.630;9.162;2023-03-26T10:46:23;96238.53;;;11.34;99.56
498;BME280;39559;48.630;9.162;2023-03-26T10:52:02;96249.84;;;11.21;99.99
498;BME280;39559;48.630;9.162;2023-03-26T10:59:01;96242.28;;;11.03;96.08
498;BME280;39559;48.630;9.162;2023-03-26T11:01:42;96249.16;;;11.04;98.90
498;BME280;39559;48.630;9.162;2023-03-26T11:07:18;96251.06;;;11.68;92.26
498;BME280;39559;48.630;9.162;2023-03-26T11:13:07;96262.84;;;12.38;95.81
498;BME280;39559;48.630;9.162;2023-03-26T11:17:44;96252.13;;;12.04;93.23
498;BME280;39559;48.630;9.162;2023-03-26T11:25:39;96246.91;;;11.78;100.00
498;BME280;39559;48.630;9.162;2023-03-26T11:33:26;96238.25;;;11.52;97.73
498;BME280;39559;48.630;9.162;2023-03-26T11:35:56;96248.03;;;11.48;99.74
498;BME280;39559;48.630;9.162;2023-03-26T11:38:34;96231.09;;;11.16;97.83
498;BME280;39559;48.630;9.162;2023-03-26T11:41:03;96227.69;;;12.19;96.01
498;BME280;39559;48.630;9.162;2023-03-26T11:43:35;96231.09;;;13.18;89.35
498;BME280;39559;48.630;9.162;2023-03-26T11:46:57;96236.22;;;12.95;79.63
498;BME280;39559;48.630;9.162;2023-03-26T11:49:26;96227.44;;;12.22;86.73
498;BME280;39559;48.630;9.162;2023-03-26T11:51:53;96218.19;;;12.68;84.05
498;BME280;39559;48.630;9.162;2023-03-26T11:54:19;96221.66;;;12.80;86.12
498;BME280;39559;48.630;9.162;2023-03-26T11:57:04;96203.28;;;12.94;77.40
498;BME280;39559;48.630;9.162;2023-03-26T11:59:39;96209.91;;;13.58;76.70
498;BME280;39559;48.630;9.162;2023-03-26T12:07:22;96207.34;;;13.10;74.62
498;BME280;39559;48.630;9.162;2023-03-26T12:11:04;96214.34;;;12.61;75.31
498;BME280;39559;48.630;9.162;2023-03-26T12:13:43;96204.59;;;12.76;79.21
498;BME280;39559;48.630;9.162;2023-03-26T12:16:17;96206.09;;;13.51;71.15
498;BME280;39559;48.630;9.162;2023-03-26T12:18:45;96206.78;;;15.00;64.08
498;BME280;39559;48.630;9.162;2023-03-26T12:21:17;96206.22;;;14.85;62.77
498;BME280;39559;48.630;9.162;2023-03-26T12:23:59;96197.97;;;14.00;57.95
498;BME280;39559;48.630;9.162;2023-03-26T12:29:08;96188.00;;;14.94;57.70
498;BME280;39559;48.630;9.162;2023-03-26T12:32:04;96194.09;;;12.77;60.79
498;BME280;39559;48.630;9.162;2023-03-26T12:34:51;96194.41;;;12.73;61.73
498;BME280;39559;48.630;9.162;2023-03-26T12:37:36;96200.34;;;14.15;60.33
498;BME280;39559;48.630;9.162;2023-03-26T12:42:57;96187.66;;;13.88;58.31
498;BME280;39559;48.630;9.162;2023-03-26T12:45:41;96179.88;;;14.76;55.08
498;BME280;39559;48.630;9.162;2023-03-26T12:48:12;96164.94;;;14.56;52.50
498;BME280;39559;48.630;9.162;2023-03-26T12:53:57;96167.88;;;15.69;50.06
498;BME280;39559;48.630;9.162;2023-03-26T12:59:11;96161.41;;;16.95;47.53
498;BME280;39559;48.630;9.162;2023-03-26T13:04:52;96145.22;;;16.80;47.44
498;BME280;39559;48.630;9.162;2023-03-26T13:15:26;96120.22;;;15.66;49.35
498;BME280;39559;48.630;9.162;2023-03-26T13:26:58;96121.94;;;14.05;49.03
498;BME280;39559;48.630;9.162;2023-03-26T13:31:38;96120.84;;;14.74;49.27
498;BME280;39559;48.630;9.162;2023-03-26T13:34:20;96131.22;;;13.75;47.24
498;BME280;39559;48.630;9.162;2023-03-26T13:37:06;96124.34;;;13.16;50.60
498;BME280;39559;48.630;9.162;2023-03-26T13:40:01;96132.44;;;13.00;51.45
498;BME280;39559;48.630;9.162;2023-03-26T13:47:09;96120.19;;;13.14;54.28
498;BME280;39559;48.630;9.162;2023-03-26T13:49:38;96106.47;;;12.87;57.12
498;BME280;39559;48.630;9.162;2023-03-26T13:52:23;96107.56;;;12.61;59.34
498;BME280;39559;48.630;9.162;2023-03-26T13:57:51;96105.75;;;11.50;62.11
498;BME280;39559;48.630;9.162;2023-03-26T14:00:25;96105.78;;;11.38;63.91
498;BME280;39559;48.630;9.162;2023-03-26T14:03:03;96095.69;;;11.33;62.46
498;BME280;39559;48.630;9.162;2023-03-26T14:05:38;96110.78;;;11.28;65.70
498;BME280;39559;48.630;9.162;2023-03-26T14:10:47;96107.94;;;11.05;63.93
498;BME280;39559;48.630;9.162;2023-03-26T14:13:21;96111.97;;;10.97;64.89
498;BME280;39559;48.630;9.162;2023-03-26T14:16:13;96118.13;;;10.95;66.63
498;BME280;39559;48.630;9.162;2023-03-26T14:24:42;96150.25;;;10.80;68.81
498;BME280;39559;48.630;9.162;2023-03-26T14:38:01;96168.25;;;8.36;100.00
498;BME280;39559;48.630;9.162;2023-03-26T14:46:13;96163.28;;;7.83;100.00
498;BME280;39559;48.630;9.162;2023-03-26T14:48:33;96157.94;;;7.71;100.00
498;BME280;39559;48.630;9.162;2023-03-26T14:51:26;96150.78;;;7.76;100.00
498;BME280;39559;48.630;9.162;2023-03-26T14:54:03;96151.31;;;7.98;100.00
498;BME280;39559;48.630;9.162;2023-03-26T15:08:24;96164.00;;;8.19;100.00
498;BME280;39559;48.630;9.162;2023-03-26T15:39:36;96199.19;;;7.21;100.00
498;BME280;39559;48.630;9.162;2023-03-26T15:46:31;96207.78;;;6.50;100.00
498;BME280;39559;48.630;9.162;2023-03-26T15:49:22;96209.09;;;6.40;100.00
498;BME280;39559;48.630;9.162;2023-03-26T15:55:06;96221.44;;;6.14;100.00
498;BME280;39559;48.630;9.162;2023-03-26T15:57:38;96215.09;;;6.22;100.00
498;BME280;39559;48.630;9.162;2023-03-26T16:00:25;96217.56;;;6.25;100.00
498;BME280;39559;48.630;9.162;2023-03-26T16:03:25;96212.25;;;6.09;100.00
498;BME280;39559;48.630;9.162;2023-03-26T16:18:47;96231.50;;;6.21;100.00
498;BME280;39559;48.630;9.162;2023-03-26T16:29:23;96241.53;;;5.87;100.00
498;BME280;39559;48.630;9.162;2023-03-26T16:34:36;96243.31;;;5.66;100.00
498;BME280;39559;48.630;9.162;2023-03-26T16:37:05;96260.28;;;5.70;100.00
498;BME280;39559;48.630;9.162;2023-03-26T16:39:50;96261.47;;;5.63;100.00
498;BME280;39559;48.630;9.162;2023-03-26T16:45:21;96262.88;;;5.50;100.00
498;BME280;39559;48.630;9.162;2023-03-26T16:48:13;96273.03;;;5.53;100.00
498;BME280;39559;48.630;9.162;2023-03-26T16:51:02;96276.53;;;5.52;100.00
498;BME280;39559;48.630;9.162;2023-03-26T16:58:55;96270.09;;;5.62;100.00
498;BME280;39559;48.630;9.162;2023-03-26T17:01:39;96276.84;;;5.65;100.00
498;BME280;39559;48.630;9.162;2023-03-26T17:04:16;96272.84;;;5.57;100.00
498;BME280;39559;48.630;9.162;2023-03-26T17:06:56;96271.00;;;5.61;100.00
498;BME280;39559;48.630;9.162;2023-03-26T17:12:45;96268.91;;;5.49;100.00
498;BME280;39559;48.630;9.162;2023-03-26T17:15:35;96271.38;;;5.52;100.00
498;BME280;39559;48.630;9.162;2023-03-26T17:27:45;96271.63;;;5.25;100.00
498;BME280;39559;48.630;9.162;2023-03-26T17:32:58;96274.91;;;5.29;100.00
498;BME280;39559;48.630;9.162;2023-03-26T17:35:47;96287.13;;;5.24;100.00
498;BME280;39559;48.630;9.162;2023-03-26T17:40:52;96279.66;;;5.17;100.00
498;BME280;39559;48.630;9.162;2023-03-26T17:48:58;96285.28;;;5.05;100.00
498;BME280;39559;48.630;9.162;2023-03-26T17:51:36;96280.81;;;5.10;100.00
498;BME280;39559;48.630;9.162;2023-03-26T17:54:18;96284.72;;;4.98;100.00
498;BME280;39559;48.630;9.162;2023-03-26T17:56:50;96275.19;;;5.00;100.00
498;BME280;39559;48.630;9.162;2023-03-26T17:59:19;96274.28;;;5.02;100.00
498;BME280;39559;48.630;9.162;2023-03-26T18:01:55;96274.53;;;4.95;100.00
498;BME280;39559;48.630;9.162;2023-03-26T18:04:42;96283.44;;;4.87;100.00
498;BME280;39559;48.630;9.162;2023-03-26T18:18:36;96270.69;;;4.84;100.00
498;BME280;39559;48.630;9.162;2023-03-26T18:21:06;96274.59;;;4.94;100.00
498;BME280;39559;48.630;9.162;2023-03-26T18:23:38;96279.03;;;4.90;100.00
498;BME280;39559;48.630;9.162;2023-03-26T18:26:14;96278.13;;;4.91;100.00
498;BME280;39559;48.630;9.162;2023-03-26T18:28:43;96279.03;;;4.90;100.00
498;BME280;39559;48.630;9.162;2023-03-26T18:34:15;96290.50;;;4.81;100.00
498;BME280;39559;48.630;9.162;2023-03-26T18:37:23;96286.38;;;4.77;100.00
498;BME280;39559;48.630;9.162;2023-03-26T18:42:26;96286.69;;;4.70;100.00
498;BME280;39559;48.630;9.162;2023-03-26T18:44:52;96284.16;;;4.68;100.00
498;BME280;39559;48.630;9.162;2023-03-26T18:47:19;96286.84;;;4.65;100.00
498;BME280;39559;48.630;9.162;2023-03-26T18:49:47;96281.72;;;4.65;100.00
498;BME280;39559;48.630;9.162;2023-03-26T18:52:17;96285.25;;;4.63;100.00
498;BME280;39559;48.630;9.162;2023-03-26T18:54:48;96287.41;;;4.73;100.00
498;BME280;39559;48.630;9.162;2023-03-26T18:58:34;96290.50;;;4.81;100.00
498;BME280;39559;48.630;9.162;2023-03-26T19:01:03;96296.31;;;4.87;100.00
498;BME280;39559;48.630;9.162;2023-03-26T19:03:31;96290.22;;;5.11;100.00
498;BME280;39559;48.630;9.162;2023-03-26T19:06:00;96296.41;;;5.06;100.00
498;BME280;39559;48.630;9.162;2023-03-26T19:08:27;96286.56;;;4.95;100.00
498;BME280;39559;48.630;9.162;2023-03-26T19:10:54;96289.91;;;4.97;100.00
498;BME280;39559;48.630;9.162;2023-03-26T19:13:21;96286.78;;;4.89;100.00
498;BME280;39559;48.630;9.162;2023-03-26T19:15:50;96281.72;;;4.87;100.00
498;BME280;39559;48.630;9.162;2023-03-26T19:18:19;96279.06;;;4.89;100.00
498;BME280;39559;48.630;9.162;2023-03-26T19:22:11;96278.91;;;4.93;100.00
498;BME280;39559;48.630;9.162;2023-03-26T19:24:37;96279.13;;;4.87;100.00
498;BME280;39559;48.630;9.162;2023-03-26T19:27:04;96271.41;;;4.87;100.00
498;BME280;39559;48.630;9.162;2023-03-26T19:29:31;96274.00;;;4.87;100.00
498;BME280;39559;48.630;9.162;2023-03-26T19:32:04;96271.56;;;4.84;100.00
498;BME280;39559;48.630;9.162;2023-03-26T19:34:32;96272.38;;;4.85;100.00
498;BME280;39559;48.630;9.162;2023-03-26T19:37:01;96283.81;;;4.77;100.00
498;BME280;39559;48.630;9.162;2023-03-26T19:39:42;96282.13;;;4.76;100.00
498;BME280;39559;48.630;9.162;2023-03-26T19:42:19;96282.25;;;4.73;100.00
498;BME280;39559;48.630;9.162;2023-03-26T19:46:11;96279.13;;;4.65;100.00
498;BME280;39559;48.630;9.162;2023-03-26T19:48:39;96279.19;;;4.64;100.00
498;BME280;39559;48.630;9.162;2023-03-26T19:51:05;96280.09;;;4.63;100.00
498;BME280;39559;48.630;9.162;2023-03-26T19:53:32;96280.22;;;4.59;100.00
498;BME280;39559;48.630;9.162;2023-03-26T19:56:10;96264.19;;;4.53;100.00
498;BME280;39559;48.630;9.162;2023-03-26T19:58:40;96267.66;;;4.52;100.00
498;BME280;39559;48.630;9.162;2023-03-26T20:01:12;96265.19;;;4.49;100.00
498;BME280;39559;48.630;9.162;2023-03-26T20:03:42;96272.97;;;4.47;100.00
498;BME280;39559;48.630;9.162;2023-03-26T20:06:11;96272.44;;;4.61;100.00